Time;durP1;ratioP1;P1;durP2;ratioP2;P2;SDS_P1;SDS_P2;PMS_P1;PMS_P2;Temp;Humidity;BMP_temperature;BMP_pressure;BME280_temperature;BME280_humidity;BME280_pressure;Samples;Min_cycle;Max_cycle;Signal;HPM_P1;HPM_P2
2022/01/01 00:01:19;;;;;;;;;356.50;334.75;9.10;78.20;;;;;;4957529;28;8875;-64
2022/01/01 00:03:45;;;;;;;;;308.50;304.25;9.30;76.10;;;;;;4956969;28;8769;-64
2022/01/01 00:06:10;;;;;;;;;414.25;377.00;9.30;75.80;;;;;;4956147;28;8794;-64
2022/01/01 00:08:36;;;;;;;;;421.75;380.00;9.50;74.80;;;;;;4980293;28;8776;-63
2022/01/01 00:11:02;;;;;;;;;451.60;422.60;9.50;75.00;;;;;;4954133;28;8781;-63
2022/01/01 00:13:28;;;;;;;;;510.00;466.00;9.30;76.00;;;;;;4956114;28;8896;-64
2022/01/01 00:15:53;;;;;;;;;514.50;457.50;9.10;77.00;;;;;;4955858;28;11573;-64
2022/01/01 00:18:19;;;;;;;;;503.00;469.50;9.40;75.00;;;;;;4955759;28;8820;-65
2022/01/01 00:20:45;;;;;;;;;507.75;454.50;9.20;76.50;;;;;;4955708;28;8782;-65
2022/01/01 00:23:11;;;;;;;;;525.40;479.40;9.10;76.30;;;;;;4955316;28;11611;-63
2022/01/01 00:25:36;;;;;;;;;504.80;466.60;9.10;76.00;;;;;;4954677;28;8788;-65
2022/01/01 00:28:02;;;;;;;;;474.75;427.75;8.90;76.90;;;;;;4956645;28;8780;-64
2022/01/01 00:30:28;;;;;;;;;506.75;449.50;8.40;79.30;;;;;;4954247;28;8796;-65
2022/01/01 00:32:54;;;;;;;;;462.50;420.75;8.50;79.80;;;;;;4956733;28;8787;-64
2022/01/01 00:35:20;;;;;;;;;475.50;431.00;8.50;79.60;;;;;;4956274;28;8899;-67
2022/01/01 00:37:45;;;;;;;;;461.00;432.50;8.40;81.30;;;;;;4955933;28;8836;-68
2022/01/01 00:40:12;;;;;;;;;383.25;345.75;8.50;80.40;;;;;;4956548;28;8827;-65
2022/01/01 00:42:37;;;;;;;;;446.50;401.75;8.40;81.30;;;;;;4956776;28;8784;-66
2022/01/01 00:45:03;;;;;;;;;444.50;400.25;7.60;89.80;;;;;;4956626;28;8799;-67
2022/01/01 00:47:29;;;;;;;;;430.50;382.75;8.00;88.00;;;;;;4956625;28;12192;-67
2022/01/01 00:49:55;;;;;;;;;449.50;405.50;8.30;84.90;;;;;;4956691;28;8780;-68
2022/01/01 00:52:21;;;;;;;;;451.00;396.50;8.30;84.50;;;;;;4956672;28;8781;-66
2022/01/01 00:54:46;;;;;;;;;435.25;395.75;8.10;87.50;;;;;;4956645;28;8886;-66
2022/01/01 00:57:12;;;;;;;;;464.00;414.00;8.30;84.50;;;;;;4956804;28;8812;-66
2022/01/01 00:59:38;;;;;;;;;374.00;361.25;8.50;82.40;;;;;;4956657;28;8880;-64
2022/01/01 01:02:04;;;;;;;;;377.00;344.75;8.10;84.80;;;;;;4956843;28;8773;-65
2022/01/01 01:04:30;;;;;;;;;351.50;323.00;7.80;87.60;;;;;;4956441;28;9422;-67
2022/01/01 01:06:56;;;;;;;;;339.50;312.00;7.40;90.70;;;;;;4956807;28;8772;-64
2022/01/01 01:09:22;;;;;;;;;332.25;308.25;7.70;90.00;;;;;;4956577;28;8811;-65
2022/01/01 01:11:51;;;;;;;;;337.50;307.50;8.10;86.80;;;;;;4956627;28;8899;-67
2022/01/01 01:14:22;;;;;;;;;293.50;278.75;8.30;84.10;;;;;;4956727;28;8810;-65
2022/01/01 01:16:50;;;;;;;;;287.50;275.50;7.90;86.40;;;;;;4956531;28;8828;-66
2022/01/01 01:19:17;;;;;;;;;300.25;287.25;7.70;90.20;;;;;;4955782;28;8792;-64
2022/01/01 01:21:44;;;;;;;;;296.50;285.75;8.10;87.90;;;;;;4941466;28;8846;-65
2022/01/01 01:24:10;;;;;;;;;278.00;269.25;8.30;86.00;;;;;;4956404;28;8883;-64
2022/01/01 01:26:36;;;;;;;;;273.75;255.50;8.70;82.60;;;;;;4956217;28;8768;-65
2022/01/01 01:29:04;;;;;;;;;285.25;267.75;8.90;80.80;;;;;;4956423;28;8814;-65
2022/01/01 01:31:30;;;;;;;;;255.00;237.50;8.90;81.00;;;;;;4956234;28;8772;-64
2022/01/01 01:33:56;;;;;;;;;256.75;241.50;9.00;82.20;;;;;;4956488;28;8764;-68
2022/01/01 01:36:22;;;;;;;;;295.75;277.75;9.30;81.80;;;;;;4955961;28;9430;-68
2022/01/01 01:38:48;;;;;;;;;293.75;274.00;9.20;79.50;;;;;;4956443;28;8783;-66
2022/01/01 01:41:14;;;;;;;;;289.75;281.75;9.10;78.60;;;;;;4956379;29;8846;-66
2022/01/01 01:43:40;;;;;;;;;336.50;310.00;8.70;81.00;;;;;;4956206;29;8833;-67
2022/01/01 01:46:07;;;;;;;;;322.00;311.25;8.60;81.80;;;;;;4956283;29;8768;-66
2022/01/01 01:48:35;;;;;;;;;290.25;282.00;8.40;83.60;;;;;;4956323;29;8879;-68
2022/01/01 01:51:02;;;;;;;;;282.50;266.50;8.40;85.40;;;;;;4954679;28;8807;-72
2022/01/01 01:53:29;;;;;;;;;338.50;321.00;8.80;85.90;;;;;;4956041;28;8844;-66
2022/01/01 01:55:56;;;;;;;;;286.25;274.75;8.90;84.90;;;;;;4956198;29;9470;-70
2022/01/01 01:58:22;;;;;;;;;318.50;296.25;8.60;86.50;;;;;;4956255;29;8963;-67
2022/01/01 02:03:14;;;;;;;;;386.50;370.00;9.20;84.00;;;;;;4956204;29;8772;-68
2022/01/01 02:05:40;;;;;;;;;361.75;339.00;8.70;85.30;;;;;;4955721;29;8781;-68
2022/01/01 02:08:09;;;;;;;;;264.75;251.25;8.80;85.60;;;;;;4955850;29;8851;-69
2022/01/01 02:10:36;;;;;;;;;261.50;245.50;9.40;83.20;;;;;;4955970;29;9426;-68
2022/01/01 02:13:12;;;;;;;;;214.00;203.50;9.70;82.70;;;;;;4955717;29;8812;-68
2022/01/01 02:18:04;;;;;;;;;361.25;313.00;9.50;87.60;;;;;;4955697;29;8805;-68
2022/01/01 02:20:30;;;;;;;;;277.25;257.25;9.00;85.50;;;;;;4955833;29;8780;-67
2022/01/01 02:23:00;;;;;;;;;223.50;214.25;9.10;87.90;;;;;;4955548;29;8797;-67
2022/01/01 02:25:26;;;;;;;;;201.00;182.75;8.90;88.90;;;;;;4956024;29;8788;-67
2022/01/01 02:27:52;;;;;;;;;193.25;185.50;8.60;91.20;;;;;;4955764;29;8892;-69
2022/01/01 02:30:19;;;;;;;;;207.00;191.75;8.40;92.20;;;;;;4955817;29;8749;-69
2022/01/01 02:32:44;;;;;;;;;192.75;181.75;8.50;91.80;;;;;;4958629;28;9446;-67
2022/01/01 02:35:13;;;;;;;;;189.75;174.00;8.20;92.80;;;;;;4959514;28;8852;-68
2022/01/01 02:37:39;;;;;;;;;207.50;196.50;8.20;93.00;;;;;;4959261;28;8777;-67
2022/01/01 02:40:06;;;;;;;;;199.00;191.75;7.90;94.10;;;;;;4959213;28;8765;-66
2022/01/01 02:42:33;;;;;;;;;194.75;188.75;7.70;95.90;;;;;;4959017;28;8784;-67
2022/01/01 02:45:02;;;;;;;;;211.75;203.00;8.20;94.20;;;;;;4959054;28;8791;-67
2022/01/01 02:47:27;;;;;;;;;211.50;203.25;8.40;92.70;;;;;;4959009;28;8799;-67
2022/01/01 02:49:53;;;;;;;;;177.50;167.50;8.00;94.30;;;;;;4959141;28;8764;-67
2022/01/01 02:52:19;;;;;;;;;198.00;189.75;8.20;93.70;;;;;;4958916;28;8764;-67
2022/01/01 02:54:45;;;;;;;;;216.00;203.75;8.10;94.60;;;;;;4958939;28;8765;-67
2022/01/01 02:57:11;;;;;;;;;216.25;201.50;7.90;96.70;;;;;;4958742;28;8810;-68
2022/01/01 02:59:36;;;;;;;;;190.00;181.75;7.90;97.40;;;;;;4959133;28;8879;-67
2022/01/01 03:02:02;;;;;;;;;215.00;204.75;8.60;93.90;;;;;;4959021;28;8788;-67
2022/01/01 03:04:28;;;;;;;;;216.50;197.00;8.90;91.50;;;;;;4958808;28;9537;-68
2022/01/01 03:06:55;;;;;;;;;208.25;197.50;8.90;91.60;;;;;;4958944;28;8808;-67
2022/01/01 03:09:24;;;;;;;;;214.50;204.00;8.90;92.10;;;;;;4958690;28;8776;-68
2022/01/01 03:11:50;;;;;;;;;201.25;189.50;9.20;91.20;;;;;;4958897;28;8777;-67
2022/01/01 03:14:17;;;;;;;;;187.50;174.75;9.30;90.50;;;;;;4958656;28;8777;-68
2022/01/01 03:16:45;;;;;;;;;212.00;197.00;9.30;90.40;;;;;;4958564;28;8831;-68
2022/01/01 03:19:11;;;;;;;;;198.75;193.00;9.30;90.80;;;;;;4958349;28;8839;-67
2022/01/01 03:21:37;;;;;;;;;203.00;187.50;9.30;90.60;;;;;;4958738;28;9434;-67
2022/01/01 03:24:03;;;;;;;;;187.75;179.00;9.30;90.50;;;;;;4958501;28;8799;-68
2022/01/01 03:26:29;;;;;;;;;178.00;171.25;9.40;89.40;;;;;;4958423;28;8764;-68
2022/01/01 03:28:54;;;;;;;;;174.75;168.75;9.80;87.30;;;;;;4958635;28;8835;-68
2022/01/01 03:31:20;;;;;;;;;154.50;148.25;9.80;86.00;;;;;;4958120;28;8898;-68
2022/01/01 03:33:46;;;;;;;;;155.25;148.25;9.40;91.60;;;;;;4958360;28;8803;-68
2022/01/01 03:36:12;;;;;;;;;167.00;160.00;8.80;96.30;;;;;;4958166;28;8863;-68
2022/01/01 03:38:37;;;;;;;;;167.50;156.50;8.60;98.20;;;;;;4958321;28;8772;-68
2022/01/01 03:41:03;;;;;;;;;147.50;143.50;8.80;98.30;;;;;;4958243;28;8780;-68
2022/01/01 03:43:29;;;;;;;;;145.25;141.75;9.10;96.20;;;;;;4957411;28;8772;-68
2022/01/01 03:45:55;;;;;;;;;147.50;140.75;8.90;97.50;;;;;;4958327;28;8799;-68
2022/01/01 03:48:21;;;;;;;;;143.25;139.25;8.80;98.20;;;;;;4958018;28;9430;-68
2022/01/01 03:50:46;;;;;;;;;137.00;135.50;8.90;97.40;;;;;;4958046;28;8776;-68
2022/01/01 03:53:12;;;;;;;;;134.75;134.50;8.60;99.40;;;;;;4957914;28;8804;-68
2022/01/01 03:55:38;;;;;;;;;128.25;123.25;8.70;99.80;;;;;;4958080;28;8796;-68
2022/01/01 03:58:04;;;;;;;;;124.25;118.00;8.60;99.90;;;;;;4957866;28;8811;-68
2022/01/01 04:00:30;;;;;;;;;126.75;123.50;8.60;99.90;;;;;;4957760;28;8761;-68
2022/01/01 04:03:08;;;;;;;;;124.75;122.00;8.70;99.90;;;;;;4958084;28;8749;-68
2022/01/01 04:05:36;;;;;;;;;107.50;105.75;8.80;99.10;;;;;;4957673;28;8780;-69
2022/01/01 04:08:03;;;;;;;;;121.75;120.25;8.90;99.20;;;;;;4957638;28;8799;-68
2022/01/01 04:10:31;;;;;;;;;110.50;107.00;9.10;98.20;;;;;;4957624;28;8775;-69
2022/01/01 04:12:58;;;;;;;;;121.25;115.50;9.20;97.40;;;;;;4957805;28;8879;-68
2022/01/01 04:15:25;;;;;;;;;113.25;111.25;9.10;97.40;;;;;;4957216;28;8769;-69
2022/01/01 04:17:56;;;;;;;;;106.50;102.50;9.20;96.90;;;;;;4957117;28;8800;-68
2022/01/01 04:20:22;;;;;;;;;112.50;110.25;9.10;97.00;;;;;;4957461;28;8799;-68
2022/01/01 04:22:48;;;;;;;;;105.25;101.75;9.00;97.70;;;;;;4957370;28;8764;-69
2022/01/01 04:25:13;;;;;;;;;96.00;92.00;8.70;98.60;;;;;;4957370;28;8799;-68
2022/01/01 04:27:39;;;;;;;;;100.00;95.50;8.60;99.70;;;;;;4957315;28;8800;-68
2022/01/01 04:30:05;;;;;;;;;103.00;99.25;8.70;99.90;;;;;;4957487;28;8757;-68
2022/01/01 04:32:31;;;;;;;;;100.25;97.75;8.60;99.90;;;;;;4957469;28;8771;-68
2022/01/01 04:34:57;;;;;;;;;105.75;104.25;8.70;99.90;;;;;;4957181;28;8777;-68
2022/01/01 04:37:23;;;;;;;;;94.75;90.75;9.10;98.10;;;;;;4955978;28;8810;-69
2022/01/01 04:39:53;;;;;;;;;98.25;97.75;9.50;95.00;;;;;;4964394;28;8789;-69
2022/01/01 04:42:18;;;;;;;;;98.50;97.00;9.80;92.30;;;;;;4957018;28;8788;-69
2022/01/01 04:44:44;;;;;;;;;93.00;85.25;9.80;91.60;;;;;;4940291;28;8859;-69
2022/01/01 04:47:10;;;;;;;;;94.25;87.50;10.30;89.10;;;;;;4956941;28;8769;-69
2022/01/01 04:49:36;;;;;;;;;86.25;76.50;10.20;88.10;;;;;;4956917;28;8854;-69
2022/01/01 04:52:02;;;;;;;;;89.50;78.75;9.70;91.00;;;;;;4956855;28;8858;-68
2022/01/01 04:54:27;;;;;;;;;90.50;85.50;9.60;91.40;;;;;;4956844;28;8793;-68
2022/01/01 04:56:53;;;;;;;;;85.75;76.25;9.70;91.70;;;;;;4956742;28;8824;-68
2022/01/01 04:59:19;;;;;;;;;86.50;77.00;9.70;90.80;;;;;;4957088;28;8809;-67
2022/01/01 05:01:45;;;;;;;;;90.00;81.00;9.10;94.20;;;;;;4956633;28;9406;-68
2022/01/01 05:04:11;;;;;;;;;87.00;74.25;8.70;97.40;;;;;;4956713;28;8753;-68
2022/01/01 05:06:37;;;;;;;;;85.50;71.00;8.50;98.20;;;;;;4956560;28;8772;-68
2022/01/01 05:09:03;;;;;;;;;89.50;80.00;8.40;99.50;;;;;;4956662;28;8785;-68
2022/01/01 05:11:29;;;;;;;;;87.25;78.00;8.40;99.50;;;;;;4956820;28;8764;-68
2022/01/01 05:13:55;;;;;;;;;87.50;81.75;8.60;98.70;;;;;;4956762;28;9503;-68
2022/01/01 05:16:21;;;;;;;;;78.00;64.00;8.80;97.70;;;;;;4956374;28;8910;-68
2022/01/01 05:18:47;;;;;;;;;85.50;74.75;8.80;96.70;;;;;;4956401;28;8804;-68
2022/01/01 05:21:13;;;;;;;;;81.75;68.50;8.80;96.50;;;;;;4956745;28;8765;-68
2022/01/01 05:23:39;;;;;;;;;81.50;66.50;9.10;95.10;;;;;;4956191;28;9435;-68
2022/01/01 05:26:05;;;;;;;;;82.75;72.25;9.30;93.20;;;;;;4956753;28;8811;-68
2022/01/01 05:28:31;;;;;;;;;83.25;73.75;9.30;92.80;;;;;;4956565;28;8843;-67
2022/01/01 05:30:57;;;;;;;;;78.00;64.00;9.20;93.00;;;;;;4956486;28;8796;-68
2022/01/01 05:33:23;;;;;;;;;79.00;66.75;9.10;93.90;;;;;;4955983;28;8882;-68
2022/01/01 05:35:49;;;;;;;;;79.25;64.25;8.80;95.20;;;;;;4956098;28;8812;-68
2022/01/01 05:38:17;;;;;;;;;66.25;56.25;8.70;95.80;;;;;;4955747;28;8777;-68
2022/01/01 05:40:43;;;;;;;;;78.00;65.25;9.10;93.60;;;;;;4956368;28;8797;-68
2022/01/01 05:43:13;;;;;;;;;80.75;66.75;8.80;94.50;;;;;;4956219;29;8780;-68
2022/01/01 05:45:42;;;;;;;;;79.00;66.00;8.80;94.90;;;;;;4956299;29;8783;-68
2022/01/01 05:48:08;;;;;;;;;77.00;62.50;9.00;93.20;;;;;;4956360;29;8781;-68
2022/01/01 05:50:35;;;;;;;;;77.25;63.75;9.00;93.20;;;;;;4956416;29;8788;-68
2022/01/01 05:53:01;;;;;;;;;74.00;61.75;8.80;94.50;;;;;;4956067;29;8772;-67
2022/01/01 05:55:26;;;;;;;;;73.25;60.75;8.90;94.80;;;;;;4956255;29;8780;-68
2022/01/01 05:57:52;;;;;;;;;85.25;74.50;8.90;93.80;;;;;;4956153;29;9384;-69
2022/01/01 06:00:18;;;;;;;;;82.25;67.25;9.00;93.20;;;;;;4956049;29;8768;-68
2022/01/01 06:02:44;;;;;;;;;81.50;69.00;8.50;96.00;;;;;;4956255;28;8776;-68
2022/01/01 06:05:10;;;;;;;;;87.00;77.25;8.40;97.40;;;;;;4956047;29;8788;-68
2022/01/01 06:07:36;;;;;;;;;89.00;80.75;8.30;98.40;;;;;;4958616;28;8783;-68
2022/01/01 06:10:03;;;;;;;;;87.00;76.75;8.20;99.20;;;;;;4960052;28;8777;-68
2022/01/01 06:12:29;;;;;;;;;84.75;74.75;8.40;98.20;;;;;;4959738;28;8761;-68
2022/01/01 06:14:55;;;;;;;;;81.75;67.75;8.30;98.80;;;;;;4959767;28;8764;-68
2022/01/01 06:17:20;;;;;;;;;91.00;80.75;8.50;97.80;;;;;;4959503;28;8819;-68
2022/01/01 06:19:46;;;;;;;;;85.75;75.75;8.30;98.60;;;;;;4959560;28;8812;-68
2022/01/01 06:22:13;;;;;;;;;89.25;73.00;8.30;99.20;;;;;;4959495;28;8788;-68
2022/01/01 06:24:39;;;;;;;;;86.50;75.50;8.40;98.80;;;;;;4959839;28;9398;-68
2022/01/01 06:27:06;;;;;;;;;85.50;71.75;8.60;97.50;;;;;;4957505;28;8768;-68
2022/01/01 06:29:31;;;;;;;;;85.50;70.25;8.60;97.40;;;;;;4959539;28;8769;-68
2022/01/01 06:31:57;;;;;;;;;86.00;77.00;8.80;96.60;;;;;;4959677;28;8771;-68
2022/01/01 06:34:23;;;;;;;;;87.00;74.00;9.00;95.80;;;;;;4959584;28;8773;-68
2022/01/01 06:36:51;;;;;;;;;83.00;70.25;9.00;94.70;;;;;;4959223;28;8800;-68
2022/01/01 06:39:17;;;;;;;;;87.50;77.75;8.90;95.20;;;;;;4959715;28;8753;-68
2022/01/01 06:41:43;;;;;;;;;81.00;71.00;9.00;94.30;;;;;;4959342;28;8894;-68
2022/01/01 06:44:09;;;;;;;;;79.50;68.25;9.20;93.30;;;;;;4959445;28;8769;-68
2022/01/01 06:46:35;;;;;;;;;80.25;66.00;9.10;93.70;;;;;;4959432;28;9426;-69
2022/01/01 06:49:01;;;;;;;;;80.75;66.00;9.00;93.70;;;;;;4959137;28;8812;-68
2022/01/01 06:51:27;;;;;;;;;82.25;67.25;9.10;93.80;;;;;;4959314;28;8760;-68
2022/01/01 06:53:52;;;;;;;;;81.00;65.25;9.00;93.10;;;;;;4954510;28;8792;-68
2022/01/01 06:56:18;;;;;;;;;76.75;61.50;9.10;93.50;;;;;;4959007;28;9375;-67
2022/01/01 06:58:44;;;;;;;;;76.50;62.50;9.10;93.20;;;;;;4959205;28;8788;-68
2022/01/01 07:01:11;;;;;;;;;77.50;65.00;9.10;93.10;;;;;;4957512;28;9474;-68
2022/01/01 07:03:36;;;;;;;;;76.00;63.75;9.20;92.50;;;;;;4959092;28;8771;-68
2022/01/01 07:06:02;;;;;;;;;73.00;60.00;9.20;92.70;;;;;;4942009;28;9557;-68
2022/01/01 07:08:29;;;;;;;;;82.75;63.00;9.10;92.50;;;;;;4959012;28;8769;-68
2022/01/01 07:10:55;;;;;;;;;76.00;62.25;9.30;92.20;;;;;;4959051;28;8835;-68
2022/01/01 07:13:21;;;;;;;;;70.50;58.25;9.40;91.70;;;;;;4958770;28;8776;-68
2022/01/01 07:15:46;;;;;;;;;70.75;58.00;9.40;91.80;;;;;;4958553;28;8812;-68
2022/01/01 07:18:12;;;;;;;;;71.75;59.25;9.40;91.80;;;;;;4957539;28;8842;-68
2022/01/01 07:20:38;;;;;;;;;75.50;62.50;9.40;91.60;;;;;;4973689;28;8811;-68
2022/01/01 07:23:04;;;;;;;;;73.00;58.75;9.30;92.70;;;;;;4958420;28;8769;-69
2022/01/01 07:25:30;;;;;;;;;70.25;59.00;9.40;92.80;;;;;;4958502;28;8787;-70
2022/01/01 07:27:56;;;;;;;;;79.50;65.75;9.40;92.60;;;;;;4958497;28;8827;-68
2022/01/01 07:30:22;;;;;;;;;77.25;64.25;9.50;92.30;;;;;;4958336;28;8895;-68
2022/01/01 07:32:50;;;;;;;;;72.50;60.00;9.50;91.90;;;;;;4958626;28;8915;-68
2022/01/01 07:35:17;;;;;;;;;74.75;61.75;9.60;91.90;;;;;;4958439;28;8796;-69
2022/01/01 07:37:43;;;;;;;;;80.00;68.00;9.50;92.60;;;;;;4958158;28;8773;-68
2022/01/01 07:40:12;;;;;;;;;77.75;66.00;9.60;92.10;;;;;;4958172;28;8772;-68
2022/01/01 07:42:38;;;;;;;;;74.75;61.00;9.50;91.90;;;;;;4958189;28;8776;-68
2022/01/01 07:45:05;;;;;;;;;71.00;58.00;9.60;92.10;;;;;;4958158;28;8784;-68
2022/01/01 07:47:31;;;;;;;;;78.25;63.75;9.70;92.50;;;;;;4958128;28;8753;-69
2022/01/01 07:49:57;;;;;;;;;74.25;60.25;9.90;90.50;;;;;;4958047;28;8764;-68
2022/01/01 07:52:23;;;;;;;;;80.75;66.50;10.00;90.60;;;;;;4957048;28;8791;-68
2022/01/01 07:54:49;;;;;;;;;71.50;58.75;9.90;91.20;;;;;;4956901;28;8762;-69
2022/01/01 07:57:15;;;;;;;;;78.75;67.75;9.80;91.50;;;;;;4956341;28;8792;-68
2022/01/01 07:59:41;;;;;;;;;82.00;70.25;9.90;91.70;;;;;;4956682;28;8765;-69
2022/01/01 08:02:06;;;;;;;;;79.00;67.75;10.00;91.00;;;;;;4956499;28;9502;-67
2022/01/01 08:04:33;;;;;;;;;81.75;70.25;10.10;91.00;;;;;;4956584;28;8780;-68
2022/01/01 08:07:01;;;;;;;;;75.25;64.00;10.10;90.90;;;;;;4956417;28;8773;-68
2022/01/01 08:09:26;;;;;;;;;77.50;64.00;10.40;89.80;;;;;;4956398;28;8785;-68
2022/01/01 08:11:54;;;;;;;;;77.50;64.75;10.40;89.60;;;;;;4956478;28;8778;-68
2022/01/01 08:14:20;;;;;;;;;73.00;60.00;10.60;88.80;;;;;;4956245;28;9393;-67
2022/01/01 08:16:58;;;;;;;;;72.75;59.00;10.80;85.60;;;;;;4955535;28;8808;-68
2022/01/01 08:19:23;;;;;;;;;75.00;60.00;10.90;85.40;;;;;;4956070;28;8813;-68
2022/01/01 08:21:49;;;;;;;;;70.50;58.25;11.00;85.90;;;;;;4956190;28;8760;-68
2022/01/01 08:24:15;;;;;;;;;68.75;56.50;10.90;85.50;;;;;;4955816;28;8792;-68
2022/01/01 08:26:41;;;;;;;;;71.00;59.00;11.10;83.20;;;;;;4954544;28;8864;-68
2022/01/01 08:29:06;;;;;;;;;66.25;54.25;11.20;82.50;;;;;;4955595;28;9515;-68
2022/01/01 08:31:32;;;;;;;;;61.00;51.00;11.20;84.30;;;;;;4955896;28;8887;-68
2022/01/01 08:33:58;;;;;;;;;69.00;54.75;11.20;82.80;;;;;;4956180;28;8778;-68
2022/01/01 08:36:24;;;;;;;;;65.50;54.75;11.20;82.30;;;;;;4953382;28;8777;-68
2022/01/01 08:38:49;;;;;;;;;49.50;42.00;11.30;81.40;;;;;;4955612;28;8786;-67
2022/01/01 08:41:16;;;;;;;;;65.75;54.75;11.30;81.40;;;;;;4955057;28;8940;-68
2022/01/01 08:43:41;;;;;;;;;66.00;55.00;11.30;81.20;;;;;;4955379;28;8771;-68
2022/01/01 08:46:07;;;;;;;;;61.25;51.00;11.20;81.80;;;;;;4954928;28;9530;-68
2022/01/01 08:48:34;;;;;;;;;65.00;51.25;11.50;80.60;;;;;;4952995;28;8800;-68
2022/01/01 08:51:11;;;;;;;;;62.50;52.25;11.50;79.80;;;;;;4955514;28;8790;-67
2022/01/01 08:53:36;;;;;;;;;65.75;52.25;11.50;79.80;;;;;;4954028;28;8786;-67
2022/01/01 08:56:07;;;;;;;;;65.00;53.00;11.60;79.30;;;;;;4954340;28;8831;-68
2022/01/01 08:58:33;;;;;;;;;61.50;53.00;11.70;78.20;;;;;;4955718;28;8802;-68
2022/01/01 09:00:59;;;;;;;;;59.50;50.50;11.70;77.30;;;;;;4955063;28;8774;-68
2022/01/01 09:03:25;;;;;;;;;51.25;44.00;11.60;78.50;;;;;;4955129;28;8778;-68
2022/01/01 09:05:51;;;;;;;;;45.00;39.00;11.60;78.00;;;;;;4955019;28;8770;-68
2022/01/01 09:08:17;;;;;;;;;62.25;52.25;11.60;78.10;;;;;;4955126;28;8824;-68
2022/01/01 09:10:43;;;;;;;;;67.00;55.25;11.50;78.80;;;;;;4955378;28;8845;-68
2022/01/01 09:13:09;;;;;;;;;59.00;50.00;11.50;79.00;;;;;;4955233;28;8755;-68
2022/01/01 09:15:34;;;;;;;;;62.25;52.00;11.80;77.40;;;;;;4954654;28;8752;-69
2022/01/01 09:18:00;;;;;;;;;70.00;56.25;12.40;74.30;;;;;;4952701;28;8792;-68
2022/01/01 09:20:26;;;;;;;;;61.00;50.00;12.50;74.10;;;;;;4955161;28;8956;-74
2022/01/01 09:22:52;;;;;;;;;58.75;49.00;12.70;72.00;;;;;;4955165;28;8998;-69
2022/01/01 09:25:18;;;;;;;;;55.50;45.00;12.60;72.60;;;;;;4955167;28;8765;-67
2022/01/01 09:27:44;;;;;;;;;57.50;46.00;12.70;72.10;;;;;;4953331;28;8831;-67
2022/01/01 09:30:10;;;;;;;;;51.00;42.25;12.90;71.30;;;;;;4955018;28;8762;-68
2022/01/01 09:32:36;;;;;;;;;50.00;42.00;13.00;70.90;;;;;;4954956;28;8794;-67
2022/01/01 09:35:03;;;;;;;;;47.00;40.00;13.20;69.90;;;;;;4954681;28;8843;-66
2022/01/01 09:37:31;;;;;;;;;48.25;40.50;13.30;70.80;;;;;;4955447;28;8816;-64
2022/01/01 09:39:58;;;;;;;;;46.75;38.50;13.60;68.80;;;;;;4956483;28;8784;-66
2022/01/01 09:42:24;;;;;;;;;45.00;37.25;13.30;69.20;;;;;;4954802;28;8792;-65
2022/01/01 09:44:52;;;;;;;;;48.25;39.25;13.40;68.60;;;;;;4955460;29;8872;-67
2022/01/01 09:47:19;;;;;;;;;51.50;43.00;13.20;68.80;;;;;;4954772;28;9557;-67
2022/01/01 09:49:45;;;;;;;;;45.00;40.00;13.00;76.60;;;;;;4955588;28;9422;-68
2022/01/01 09:52:16;;;;;;;;;49.25;39.50;13.20;71.20;;;;;;4956057;28;8768;-66
2022/01/01 09:54:42;;;;;;;;;44.50;38.75;13.30;69.60;;;;;;4948442;28;8790;-65
2022/01/01 09:57:10;;;;;;;;;46.25;38.75;13.10;70.10;;;;;;4952454;28;9446;-66
2022/01/01 09:59:37;;;;;;;;;46.00;40.00;13.10;70.10;;;;;;4955488;29;8894;-64
2022/01/01 10:02:03;;;;;;;;;42.50;37.00;13.00;70.50;;;;;;4955607;28;8777;-64
2022/01/01 10:04:41;;;;;;;;;45.50;39.50;13.00;70.40;;;;;;4954667;28;8777;-65
2022/01/01 10:07:07;;;;;;;;;44.25;36.00;13.40;70.10;;;;;;4955034;28;9829;-65
2022/01/01 10:09:34;;;;;;;;;43.50;36.75;13.70;68.20;;;;;;4954294;28;8907;-63
2022/01/01 10:12:01;;;;;;;;;43.75;36.50;13.90;67.20;;;;;;4954957;28;9443;-64
2022/01/01 10:14:53;;;;;;;;;43.33;37.67;14.30;66.00;;;;;;4955211;29;8777;-62
2022/01/01 10:17:22;;;;;;;;;39.00;36.00;14.50;64.60;;;;;;4951605;29;8825;-70
2022/01/01 10:19:53;;;;;;;;;41.67;38.00;15.00;63.30;;;;;;4952482;28;8816;-63
2022/01/01 10:22:24;;;;;;;;;42.33;34.00;15.20;62.10;;;;;;4952001;28;8781;-63
2022/01/01 10:27:54;;;;;;;;;44.33;38.00;14.80;64.10;;;;;;4953186;28;8921;-63
2022/01/01 10:30:22;;;;;;;;;45.33;38.67;15.30;62.00;;;;;;4954173;28;8762;-63
2022/01/01 10:33:10;;;;;;;;;43.67;37.67;15.30;62.20;;;;;;4954809;28;9472;-64
2022/01/01 10:35:38;;;;;;;;;44.00;37.33;15.50;62.00;;;;;;4956006;28;8776;-65
2022/01/01 10:38:12;;;;;;;;;30.33;30.00;17.40;58.50;;;;;;4953573;28;8819;-64
2022/01/01 10:40:38;;;;;;;;;40.00;35.00;20.40;52.20;;;;;;4952160;29;8851;-63
2022/01/01 10:43:04;;;;;;;;;46.33;39.67;18.40;52.80;;;;;;4953808;28;8804;-64
2022/01/01 10:45:32;;;;;;;;;42.67;36.00;17.30;56.80;;;;;;4953802;28;8754;-64
2022/01/01 10:48:15;;;;;;;;;50.00;41.33;17.70;56.40;;;;;;4954462;29;9420;-67
2022/01/01 10:50:43;;;;;;;;;47.67;40.00;20.60;52.60;;;;;;4954256;29;8762;-65
2022/01/01 10:53:15;;;;;;;;;39.00;36.00;24.80;43.60;;;;;;4940882;28;8811;-60
2022/01/01 10:55:42;;;;;;;;;50.00;43.33;26.90;39.40;;;;;;4956582;28;9455;-61
2022/01/01 10:58:08;;;;;;;;;52.67;44.67;25.70;37.00;;;;;;4957168;28;8797;-69
2022/01/01 11:00:40;;;;;;;;;52.00;43.00;22.40;42.00;;;;;;4957573;28;8817;-65
2022/01/01 11:03:15;;;;;;;;;53.00;46.00;19.00;50.10;;;;;;4957625;28;8806;-63
2022/01/01 11:05:41;;;;;;;;;49.00;42.67;17.30;55.90;;;;;;4956468;28;8772;-68
2022/01/01 11:08:08;;;;;;;;;51.00;43.33;16.80;57.70;;;;;;4958620;28;8780;-62
2022/01/01 11:10:36;;;;;;;;;52.00;44.00;19.00;54.80;;;;;;4958668;28;8760;-71
2022/01/01 11:13:04;;;;;;;;;49.67;42.33;22.60;48.40;;;;;;4958587;28;8887;-68
2022/01/01 11:15:30;;;;;;;;;43.33;38.67;26.50;39.50;;;;;;4957120;28;8774;-64
2022/01/01 11:17:57;;;;;;;;;42.00;37.00;29.80;35.00;;;;;;4957106;28;8812;-66
2022/01/01 11:20:24;;;;;;;;;38.67;35.00;30.70;32.60;;;;;;4957307;28;8801;-63
2022/01/01 11:22:50;;;;;;;;;39.67;36.00;29.90;33.20;;;;;;4956739;28;11460;-63
2022/01/01 11:25:19;;;;;;;;;39.33;35.67;29.40;32.90;;;;;;4956648;28;8880;-66
2022/01/01 11:27:46;;;;;;;;;27.33;27.33;28.30;34.50;;;;;;4956187;28;11582;-66
2022/01/01 11:30:13;;;;;;;;;30.67;30.00;27.10;34.60;;;;;;4956759;28;11485;-63
2022/01/01 11:33:02;;;;;;;;;31.67;30.67;22.60;40.70;;;;;;4956293;28;11467;-64
2022/01/01 11:35:34;;;;;;;;;37.67;34.33;20.50;47.90;;;;;;4956221;28;8784;-64
2022/01/01 11:38:13;;;;;;;;;31.67;30.67;26.00;39.90;;;;;;4955926;28;8781;-66
2022/01/01 11:41:03;;;;;;;;;33.00;31.00;29.70;33.60;;;;;;4957930;28;8814;-67
2022/01/01 11:43:51;;;;;;;;;31.33;30.33;29.10;32.70;;;;;;4956355;28;8805;-65
2022/01/01 11:46:29;;;;;;;;;34.00;31.00;28.40;34.20;;;;;;4955109;28;11597;-64
2022/01/01 11:48:58;;;;;;;;;32.67;30.67;29.50;32.60;;;;;;4958021;28;11541;-62
2022/01/01 11:51:48;;;;;;;;;34.00;31.33;29.30;33.20;;;;;;4957627;28;12212;-63
2022/01/01 11:54:14;;;;;;;;;32.67;30.33;31.10;31.40;;;;;;4957230;28;11478;-63
2022/01/01 11:56:49;;;;;;;;;36.67;33.67;29.70;32.20;;;;;;4957656;28;8824;-63
2022/01/01 11:59:24;;;;;;;;;40.00;35.00;30.10;31.90;;;;;;4958113;28;9639;-63
2022/01/01 12:01:52;;;;;;;;;41.33;36.67;32.30;29.70;;;;;;4957610;28;8756;-63
2022/01/01 12:04:24;;;;;;;;;40.33;36.00;34.50;27.80;;;;;;4957320;28;8788;-63
2022/01/01 12:06:56;;;;;;;;;40.33;35.33;35.90;26.60;;;;;;4957672;28;8784;-63
2022/01/01 12:09:23;;;;;;;;;35.67;32.67;35.70;26.30;;;;;;4957572;28;8769;-63
2022/01/01 12:11:57;;;;;;;;;41.00;35.67;34.80;27.30;;;;;;4956583;28;9431;-63
2022/01/01 12:14:30;;;;;;;;;34.00;31.67;35.30;26.40;;;;;;4957626;28;8791;-63
2022/01/01 12:16:56;;;;;;;;;35.00;31.67;34.50;26.70;;;;;;4957364;28;8836;-63
2022/01/01 12:19:24;;;;;;;;;35.67;32.67;31.20;29.50;;;;;;4957094;28;11510;-63
2022/01/01 12:22:07;;;;;;;;;30.67;29.67;29.50;31.80;;;;;;4957046;28;11479;-63
2022/01/01 12:24:37;;;;;;;;;36.67;33.67;30.40;31.30;;;;;;4956924;28;11528;-63
2022/01/01 12:27:13;;;;;;;;;25.33;25.33;31.00;30.50;;;;;;4956831;28;11490;-63
2022/01/01 12:29:39;;;;;;;;;31.00;30.33;31.10;30.00;;;;;;4956707;28;11568;-63
2022/01/01 12:32:08;;;;;;;;;32.33;31.00;31.00;29.60;;;;;;4957168;28;11639;-63
2022/01/01 12:34:37;;;;;;;;;27.75;27.25;29.40;31.40;;;;;;4957239;28;11624;-63
2022/01/01 12:37:12;;;;;;;;;29.00;29.00;28.20;33.70;;;;;;4956748;28;11718;-62
2022/01/01 12:39:57;;;;;;;;;31.67;29.33;29.60;31.50;;;;;;4956639;28;11558;-64
2022/01/01 12:42:30;;;;;;;;;25.00;25.00;31.00;30.20;;;;;;4956893;28;11643;-64
2022/01/01 12:45:03;;;;;;;;;25.00;25.00;30.10;30.20;;;;;;4956867;28;12237;-64